Time;durP1;ratioP1;P1;durP2;ratioP2;P2;SDS_P1;SDS_P2;PMS_P1;PMS_P2;Temp;Humidity;BMP_temperature;BMP_pressure;BME280_temperature;BME280_humidity;BME280_pressure;Samples;Min_cycle;Max_cycle;Signal;HPM_P1;HPM_P2
2022/12/18 00:01:21;;;;;;;1.20;0.50;;;-12.00;99.90;;;;;;5027464;28;20873;-68
2022/12/18 00:03:47;;;;;;;1.60;0.87;;;-12.00;99.90;;;;;;5030062;28;20435;-68
2022/12/18 00:06:13;;;;;;;4.83;2.20;;;-11.90;99.90;;;;;;5030852;28;20451;-68
2022/12/18 00:08:39;;;;;;;1.00;0.40;;;-12.00;99.90;;;;;;5030490;28;20843;-69
2022/12/18 00:11:06;;;;;;;1.20;0.50;;;-12.00;99.90;;;;;;5032398;28;20492;-65
2022/12/18 00:13:32;;;;;;;19.73;8.13;;;-12.00;99.90;;;;;;5030204;28;20420;-68
2022/12/18 00:16:03;;;;;;;5.67;2.53;;;-11.90;99.90;;;;;;5030169;28;20421;-68
2022/12/18 00:18:28;;;;;;;1.00;0.40;;;-12.10;99.90;;;;;;5031333;28;20209;-66
2022/12/18 00:20:58;;;;;;;1.60;0.87;;;-12.10;99.90;;;;;;5034341;28;20448;-68
2022/12/18 00:23:23;;;;;;;5.97;4.80;;;-12.10;99.90;;;;;;5033881;28;20193;-68
2022/12/18 00:25:49;;;;;;;5.00;2.47;;;-12.20;99.90;;;;;;5034348;28;20433;-68
2022/12/18 00:28:14;;;;;;;1.77;0.70;;;-12.30;99.90;;;;;;5034234;28;20268;-68
2022/12/18 00:30:40;;;;;;;2.13;0.97;;;-12.40;99.90;;;;;;5033476;28;20179;-68
2022/12/18 00:33:05;;;;;;;9.57;2.53;;;-12.50;99.90;;;;;;5032991;28;20626;-68
2022/12/18 00:35:31;;;;;;;1.50;0.50;;;-12.50;99.90;;;;;;5034173;28;20186;-68
2022/12/18 00:37:57;;;;;;;1.20;0.47;;;-12.50;99.90;;;;;;5034403;28;20178;-66
2022/12/18 00:40:23;;;;;;;2.73;0.53;;;-12.60;99.90;;;;;;5034071;28;20570;-66
2022/12/18 00:42:57;;;;;;;1.00;0.40;;;-12.60;99.90;;;;;;5033502;28;20196;-66
2022/12/18 00:45:25;;;;;;;1.00;0.40;;;-12.50;99.90;;;;;;5033499;28;20623;-68
2022/12/18 00:47:50;;;;;;;1.63;1.03;;;-12.30;99.90;;;;;;5020399;28;20816;-66
2022/12/18 00:50:17;;;;;;;1.10;0.50;;;-12.30;99.90;;;;;;5033972;28;20423;-68
2022/12/18 00:52:42;;;;;;;3.03;1.23;;;-12.20;99.90;;;;;;5033409;28;20197;-68
2022/12/18 00:55:09;;;;;;;10.50;3.40;;;-12.30;99.90;;;;;;5033745;28;20925;-66
2022/12/18 00:57:34;;;;;;;1.00;0.40;;;-12.40;99.90;;;;;;5026810;28;20594;-67
2022/12/18 01:00:00;;;;;;;1.20;0.50;;;-12.50;99.90;;;;;;5033339;28;20421;-67
2022/12/18 01:02:26;;;;;;;1.20;0.50;;;-12.50;99.90;;;;;;5033074;28;20634;-67
2022/12/18 01:04:51;;;;;;;2.10;0.50;;;-12.50;99.90;;;;;;5033640;28;20377;-67
2022/12/18 01:07:17;;;;;;;1.30;0.70;;;-12.50;99.90;;;;;;5033682;28;21131;-67
2022/12/18 01:09:42;;;;;;;1.10;0.50;;;-12.50;99.90;;;;;;5033366;28;20178;-67
2022/12/18 01:12:08;;;;;;;1.63;0.70;;;-12.40;99.90;;;;;;5032956;28;20325;-66
2022/12/18 01:14:33;;;;;;;1.67;0.90;;;-12.30;99.90;;;;;;5033046;28;20606;-69
2022/12/18 01:16:59;;;;;;;26.23;10.10;;;-12.00;99.90;;;;;;5032972;28;20190;-67
2022/12/18 01:19:25;;;;;;;1.00;0.40;;;-12.10;99.90;;;;;;5033473;28;20185;-67
2022/12/18 01:21:50;;;;;;;1.20;0.50;;;-12.20;99.90;;;;;;5033145;28;20257;-66
2022/12/18 01:24:16;;;;;;;1.00;0.40;;;-12.20;99.90;;;;;;5033234;28;20631;-67
2022/12/18 01:26:41;;;;;;;1.00;0.50;;;-12.20;99.90;;;;;;5033144;28;20194;-67
2022/12/18 01:29:07;;;;;;;1.00;0.40;;;-12.10;99.90;;;;;;5032777;28;20210;-67
2022/12/18 01:31:33;;;;;;;1.00;0.30;;;-12.10;99.90;;;;;;5031607;28;20633;-67
2022/12/18 01:34:04;;;;;;;1.10;0.50;;;-12.10;99.90;;;;;;5032170;28;20183;-66
2022/12/18 01:36:39;;;;;;;1.27;0.73;;;-12.30;99.90;;;;;;5032944;28;20421;-67
2022/12/18 01:39:10;;;;;;;2.43;1.17;;;-12.20;99.90;;;;;;5033170;28;21005;-67
2022/12/18 01:44:45;;;;;;;1.47;0.67;;;-12.40;99.90;;;;;;5032866;28;20440;-66
2022/12/18 01:47:18;;;;;;;3.20;1.70;;;-12.40;99.90;;;;;;5032519;28;20511;-67
2022/12/18 01:49:44;;;;;;;3.07;1.80;;;-12.40;99.90;;;;;;5020659;28;20440;-67
2022/12/18 01:52:09;;;;;;;1.00;0.40;;;-12.40;99.90;;;;;;5032241;28;20431;-67
2022/12/18 01:54:35;;;;;;;1.00;0.40;;;-12.40;99.90;;;;;;5032644;28;20616;-67
2022/12/18 01:57:00;;;;;;;1.00;0.40;;;-12.30;99.90;;;;;;5032607;28;20182;-66
2022/12/18 01:59:30;;;;;;;1.00;0.40;;;-12.20;99.90;;;;;;5028035;28;20244;-67
2022/12/18 02:01:56;;;;;;;1.00;0.40;;;-12.10;99.90;;;;;;5026269;28;20171;-67
2022/12/18 02:04:25;;;;;;;6.10;1.87;;;-12.10;99.90;;;;;;5031592;28;20417;-67
2022/12/18 02:06:57;;;;;;;1.67;1.50;;;-12.00;99.90;;;;;;5032497;28;20428;-67
2022/12/18 02:09:36;;;;;;;1.67;0.90;;;-11.90;99.90;;;;;;5032089;28;21132;-67
2022/12/18 02:12:08;;;;;;;1.00;0.50;;;-11.90;99.90;;;;;;5031300;28;20425;-67
2022/12/18 02:14:45;;;;;;;7.00;2.60;;;-11.80;99.90;;;;;;5032084;28;20437;-67
2022/12/18 02:17:17;;;;;;;38.97;11.20;;;-11.80;99.90;;;;;;5032107;28;21090;-68
2022/12/18 02:20:08;;;;;;;1.10;0.60;;;-11.80;99.90;;;;;;5032159;28;20417;-67
2022/12/18 02:22:59;;;;;;;1.10;0.50;;;-11.80;99.90;;;;;;5031801;28;20464;-68
2022/12/18 02:26:06;;;;;;;1.93;1.00;;;-11.80;99.90;;;;;;5021483;28;20540;-66
2022/12/18 02:28:36;;;;;;;4.13;1.80;;;-11.70;99.90;;;;;;5031657;28;20473;-66
2022/12/18 02:31:05;;;;;;;1.00;0.53;;;-11.60;99.90;;;;;;5031651;28;20425;-66
2022/12/18 02:33:32;;;;;;;1.27;0.40;;;-11.40;99.90;;;;;;5030161;28;20420;-67
2022/12/18 02:35:59;;;;;;;1.10;0.40;;;-11.40;99.90;;;;;;5032154;28;20781;-67
2022/12/18 02:38:26;;;;;;;2.80;2.50;;;-11.30;99.90;;;;;;5032021;28;20456;-67
2022/12/18 02:40:53;;;;;;;1.50;0.53;;;-11.10;99.90;;;;;;5031649;28;21117;-67
2022/12/18 02:43:19;;;;;;;1.30;0.80;;;-10.90;99.90;;;;;;5030539;28;20610;-67
2022/12/18 02:45:55;;;;;;;1.00;0.40;;;-10.70;99.90;;;;;;5031242;28;20437;-67
2022/12/18 02:48:29;;;;;;;2.60;2.40;;;-10.40;99.90;;;;;;5031400;28;20460;-67
2022/12/18 02:51:03;;;;;;;1.27;0.50;;;-10.10;99.90;;;;;;5031605;28;20417;-67
2022/12/18 02:53:39;;;;;;;2.10;1.07;;;-9.90;99.90;;;;;;5031245;28;20491;-67
2022/12/18 02:56:05;;;;;;;1.00;0.40;;;-9.80;99.90;;;;;;5028909;28;20702;-67
2022/12/18 02:58:37;;;;;;;1.10;0.50;;;-9.70;99.90;;;;;;5031340;28;20452;-67
2022/12/18 03:01:29;;;;;;;1.20;0.80;;;-9.50;99.90;;;;;;5031219;28;20186;-66
2022/12/18 03:04:04;;;;;;;1.30;0.53;;;-9.40;99.90;;;;;;5030976;28;20483;-67
2022/12/18 03:06:38;;;;;;;1.00;0.40;;;-9.40;99.90;;;;;;5031766;28;20747;-66
2022/12/18 03:09:16;;;;;;;2.80;2.30;;;-9.40;99.90;;;;;;5019401;28;20975;-67
2022/12/18 03:14:36;;;;;;;1.20;0.50;;;-9.40;99.90;;;;;;5023905;28;20527;-67
2022/12/18 03:17:07;;;;;;;4.67;2.40;;;-9.30;99.90;;;;;;5031221;28;20482;-67
2022/12/18 03:19:34;;;;;;;3.83;1.33;;;-9.30;99.90;;;;;;5031163;28;20423;-67
2022/12/18 03:22:03;;;;;;;1.00;0.40;;;-9.30;99.90;;;;;;5030870;28;20431;-67
2022/12/18 03:24:31;;;;;;;1.00;0.40;;;-9.20;99.90;;;;;;5030744;28;20453;-66
2022/12/18 03:27:04;;;;;;;1.63;0.63;;;-9.30;99.90;;;;;;5031299;28;20811;-67
2022/12/18 03:29:33;;;;;;;1.77;1.33;;;-9.30;99.90;;;;;;5030620;28;20418;-67
2022/12/18 03:32:09;;;;;;;1.30;0.67;;;-9.30;99.90;;;;;;5030444;28;21055;-67
2022/12/18 03:34:39;;;;;;;1.27;0.60;;;-9.40;99.90;;;;;;5029880;28;20954;-67
2022/12/18 03:37:05;;;;;;;1.13;0.43;;;-9.40;99.90;;;;;;5031194;28;20902;-67
2022/12/18 03:39:32;;;;;;;1.63;0.60;;;-9.30;99.90;;;;;;5030796;28;20425;-66
2022/12/18 03:42:27;;;;;;;1.20;0.83;;;-9.40;99.90;;;;;;5030771;28;20428;-67
2022/12/18 03:45:03;;;;;;;1.83;0.90;;;-9.40;99.90;;;;;;5018951;28;20948;-67
2022/12/18 03:47:39;;;;;;;1.80;1.07;;;-9.40;99.90;;;;;;5030569;28;20491;-67
2022/12/18 03:50:17;;;;;;;1.77;0.77;;;-9.50;99.90;;;;;;5030712;28;20429;-67
2022/12/18 03:52:58;;;;;;;1.37;0.57;;;-9.50;99.90;;;;;;5030444;28;20475;-66
2022/12/18 03:55:27;;;;;;;1.00;0.40;;;-9.50;99.90;;;;;;5034795;28;20909;-67
2022/12/18 03:57:54;;;;;;;1.97;1.50;;;-9.60;99.90;;;;;;5035074;28;20440;-67
2022/12/18 04:00:20;;;;;;;1.00;0.40;;;-9.60;99.90;;;;;;5030547;28;20449;-67
2022/12/18 04:02:52;;;;;;;1.00;0.40;;;-9.70;99.90;;;;;;5027977;28;20416;-67
2022/12/18 04:05:19;;;;;;;1.53;1.43;;;-9.70;99.90;;;;;;5034561;28;20728;-67
2022/12/18 04:07:46;;;;;;;1.20;0.47;;;-9.70;99.90;;;;;;5034415;28;20945;-66
2022/12/18 04:10:13;;;;;;;1.87;0.53;;;-9.70;99.90;;;;;;5033923;28;20783;-67
2022/12/18 04:12:39;;;;;;;1.70;1.47;;;-9.70;99.90;;;;;;5033592;28;20475;-67
2022/12/18 04:15:05;;;;;;;2.13;0.60;;;-9.60;99.90;;;;;;5034190;28;21040;-67
2022/12/18 04:17:31;;;;;;;2.20;1.23;;;-9.60;99.90;;;;;;5034546;28;20563;-66
2022/12/18 04:19:57;;;;;;;1.17;0.50;;;-9.60;99.90;;;;;;5034321;28;20599;-67
2022/12/18 04:22:22;;;;;;;1.10;0.40;;;-9.60;99.90;;;;;;5034081;28;20197;-67
2022/12/18 04:24:48;;;;;;;1.20;0.60;;;-9.60;99.90;;;;;;5034248;28;20646;-67
2022/12/18 04:27:13;;;;;;;1.20;0.57;;;-9.50;99.90;;;;;;5034682;28;20206;-66
2022/12/18 04:29:39;;;;;;;1.10;0.60;;;-9.50;99.90;;;;;;5033719;28;20202;-66
2022/12/18 04:32:05;;;;;;;1.10;0.60;;;-9.50;99.90;;;;;;5033771;28;20194;-66
2022/12/18 04:34:31;;;;;;;2.40;0.60;;;-9.60;99.90;;;;;;5033069;28;20178;-67
2022/12/18 04:36:56;;;;;;;1.40;0.77;;;-9.50;99.90;;;;;;5034372;28;20298;-67
2022/12/18 04:39:22;;;;;;;1.10;0.60;;;-9.50;99.90;;;;;;5034193;28;20187;-67
2022/12/18 04:41:47;;;;;;;1.30;0.60;;;-9.50;99.90;;;;;;5034104;28;20205;-67
2022/12/18 04:44:13;;;;;;;3.10;1.17;;;-9.50;99.90;;;;;;5033680;28;20248;-66
2022/12/18 04:46:39;;;;;;;1.77;0.70;;;-9.40;99.90;;;;;;5034348;28;20395;-67
2022/12/18 04:49:04;;;;;;;3.97;1.90;;;-9.40;99.90;;;;;;5033670;28;20213;-67
2022/12/18 04:51:30;;;;;;;1.77;1.27;;;-9.40;99.90;;;;;;5033901;28;20186;-66
2022/12/18 04:53:55;;;;;;;1.00;0.40;;;-9.40;99.90;;;;;;5033771;28;20928;-67
2022/12/18 04:56:21;;;;;;;1.20;0.50;;;-9.40;99.90;;;;;;5034072;28;20221;-66
2022/12/18 04:58:47;;;;;;;1.63;0.80;;;-9.40;99.90;;;;;;5033620;28;20565;-67
2022/12/18 05:01:14;;;;;;;2.03;0.60;;;-9.50;99.90;;;;;;5033447;28;20437;-67
2022/12/18 05:03:40;;;;;;;1.00;0.40;;;-9.50;99.90;;;;;;5032948;28;20190;-67
2022/12/18 05:06:07;;;;;;;4.50;1.33;;;-9.50;99.90;;;;;;5032510;28;20523;-67
2022/12/18 05:08:33;;;;;;;1.27;0.50;;;-9.50;99.90;;;;;;5033479;28;20206;-67
2022/12/18 05:11:07;;;;;;;1.00;0.50;;;-9.60;99.90;;;;;;5035090;28;20415;-67
2022/12/18 05:13:34;;;;;;;1.37;0.80;;;-9.60;99.90;;;;;;5030895;28;20511;-67
2022/12/18 05:16:00;;;;;;;15.67;8.30;;;-9.60;99.90;;;;;;5033291;28;20430;-67
2022/12/18 05:18:26;;;;;;;1.40;0.50;;;-9.70;99.90;;;;;;5033179;28;20471;-67
2022/12/18 05:20:52;;;;;;;1.00;0.40;;;-9.70;99.90;;;;;;5033326;28;20464;-67
2022/12/18 05:23:19;;;;;;;1.47;0.67;;;-9.80;99.90;;;;;;5032872;28;20524;-67
2022/12/18 05:26:05;;;;;;;6.00;5.47;;;-9.90;99.90;;;;;;5033401;28;20425;-66
2022/12/18 05:28:33;;;;;;;2.43;0.97;;;-9.90;99.90;;;;;;5020625;28;20540;-66
2022/12/18 05:31:00;;;;;;;3.57;1.30;;;-10.00;99.90;;;;;;5032724;28;20464;-67
2022/12/18 05:33:28;;;;;;;1.00;0.30;;;-10.00;99.90;;;;;;5032073;28;20409;-67
2022/12/18 05:35:57;;;;;;;2.20;1.00;;;-10.00;99.90;;;;;;5033174;28;20474;-67
2022/12/18 05:38:24;;;;;;;1.37;0.40;;;-10.00;99.90;;;;;;5033466;28;20421;-67
2022/12/18 05:40:50;;;;;;;1.10;0.50;;;-10.10;99.90;;;;;;5032851;28;20417;-67
2022/12/18 05:43:17;;;;;;;15.13;4.10;;;-10.20;99.90;;;;;;5032837;28;20495;-66
2022/12/18 05:45:42;;;;;;;1.30;0.40;;;-10.30;99.90;;;;;;5032171;28;20898;-67
2022/12/18 05:48:08;;;;;;;1.53;0.70;;;-10.30;99.90;;;;;;5032758;28;20492;-67
2022/12/18 05:50:38;;;;;;;1.13;0.50;;;-10.20;99.90;;;;;;5032392;28;20522;-67
2022/12/18 05:53:05;;;;;;;1.20;0.50;;;-10.20;99.90;;;;;;5032307;28;20421;-66
2022/12/18 05:55:35;;;;;;;1.00;0.40;;;-10.30;99.90;;;;;;5032403;28;20456;-67
2022/12/18 05:58:01;;;;;;;1.00;0.40;;;-10.30;99.90;;;;;;5032658;28;20445;-67
2022/12/18 06:00:26;;;;;;;1.20;0.70;;;-10.40;99.90;;;;;;5029169;28;20413;-66
2022/12/18 06:02:52;;;;;;;1.00;0.40;;;-10.40;99.90;;;;;;5030895;28;20472;-66
2022/12/18 06:05:18;;;;;;;7.33;2.40;;;-10.40;99.90;;;;;;5031048;28;20190;-67
2022/12/18 06:07:44;;;;;;;1.00;0.40;;;-10.40;99.90;;;;;;5032419;28;20267;-67
2022/12/18 06:10:09;;;;;;;1.20;0.50;;;-10.40;99.90;;;;;;5032142;28;20186;-67
2022/12/18 06:12:35;;;;;;;3.33;3.03;;;-10.50;99.90;;;;;;5031239;28;20175;-67
2022/12/18 06:15:01;;;;;;;3.23;2.13;;;-10.60;99.90;;;;;;5031927;28;20269;-67
2022/12/18 06:17:30;;;;;;;1.20;0.50;;;-10.80;99.90;;;;;;5032214;28;20568;-66
2022/12/18 06:19:56;;;;;;;1.00;0.43;;;-11.00;99.90;;;;;;5014730;28;20498;-66
2022/12/18 06:22:22;;;;;;;1.00;0.40;;;-11.00;99.90;;;;;;5031755;28;20436;-67
2022/12/18 06:24:47;;;;;;;1.20;0.70;;;-11.00;99.90;;;;;;5032351;28;20178;-67
2022/12/18 06:27:13;;;;;;;1.20;0.60;;;-11.10;99.90;;;;;;5032456;28;20562;-67
2022/12/18 06:29:39;;;;;;;1.30;0.40;;;-11.20;99.90;;;;;;5031723;28;20194;-67
2022/12/18 06:32:05;;;;;;;8.00;2.87;;;-11.30;99.90;;;;;;5031607;28;20448;-68
2022/12/18 06:34:31;;;;;;;1.00;0.33;;;-11.30;99.90;;;;;;5030827;28;20233;-67
2022/12/18 06:36:56;;;;;;;1.10;0.50;;;-11.30;99.90;;;;;;5031901;28;20446;-67
2022/12/18 06:39:22;;;;;;;1.00;0.33;;;-11.40;99.90;;;;;;5031834;28;20429;-67
2022/12/18 06:41:48;;;;;;;1.40;0.90;;;-11.30;99.90;;;;;;5031586;28;20572;-67
2022/12/18 06:44:13;;;;;;;1.30;0.60;;;-11.30;99.90;;;;;;5031377;28;20273;-67
2022/12/18 06:46:39;;;;;;;1.00;0.40;;;-11.30;99.90;;;;;;5032088;28;20674;-67
2022/12/18 06:49:04;;;;;;;1.90;0.40;;;-11.40;99.90;;;;;;5031180;28;20281;-67
2022/12/18 06:51:30;;;;;;;1.00;0.30;;;-11.40;99.90;;;;;;5031178;28;20186;-67
2022/12/18 06:53:56;;;;;;;5.93;4.17;;;-11.30;99.90;;;;;;5031088;28;20262;-67
2022/12/18 06:56:21;;;;;;;1.00;0.40;;;-11.30;99.90;;;;;;5031725;28;20183;-67
2022/12/18 06:58:47;;;;;;;1.53;1.17;;;-11.30;99.90;;;;;;5031489;28;20651;-67
2022/12/18 07:01:13;;;;;;;1.00;0.50;;;-11.40;99.90;;;;;;5031152;28;20260;-67
2022/12/18 07:03:40;;;;;;;1.00;0.40;;;-11.50;99.90;;;;;;5030587;28;20797;-67
2022/12/18 07:06:06;;;;;;;1.53;0.70;;;-11.50;99.90;;;;;;5031695;28;20269;-67
2022/12/18 07:08:32;;;;;;;2.90;2.50;;;-11.50;99.90;;;;;;5031479;28;20846;-67
2022/12/18 07:10:58;;;;;;;1.30;1.17;;;-11.50;99.90;;;;;;5031472;28;20236;-67
2022/12/18 07:13:24;;;;;;;1.00;0.40;;;-11.60;99.90;;;;;;5031122;28;20811;-68
2022/12/18 07:15:49;;;;;;;1.00;0.50;;;-11.70;99.90;;;;;;5030983;28;20421;-67
2022/12/18 07:18:15;;;;;;;1.00;0.40;;;-11.70;99.90;;;;;;5030953;28;20249;-68
2022/12/18 07:20:40;;;;;;;1.87;1.57;;;-11.60;99.90;;;;;;5031186;28;20213;-67
2022/12/18 07:23:06;;;;;;;4.97;3.23;;;-11.50;99.90;;;;;;5030581;28;20191;-68
2022/12/18 07:25:35;;;;;;;1.63;1.00;;;-11.40;99.90;;;;;;5031225;28;20257;-67
2022/12/18 07:28:01;;;;;;;2.47;1.60;;;-11.40;99.90;;;;;;5030552;28;20833;-68
2022/12/18 07:30:27;;;;;;;2.03;1.83;;;-11.40;99.90;;;;;;5030736;28;20516;-68
2022/12/18 07:32:52;;;;;;;1.00;0.50;;;-11.40;99.90;;;;;;5029390;28;20190;-67
2022/12/18 07:35:18;;;;;;;4.00;0.90;;;-11.40;99.90;;;;;;5031019;28;20269;-68
2022/12/18 07:37:44;;;;;;;5.33;2.93;;;-11.30;99.90;;;;;;5031106;28;20293;-68
2022/12/18 07:40:10;;;;;;;1.20;0.67;;;-11.20;99.90;;;;;;5031053;28;20471;-67
2022/12/18 07:42:36;;;;;;;1.83;1.63;;;-11.20;99.90;;;;;;5030509;28;20293;-67
2022/12/18 07:45:03;;;;;;;1.00;0.43;;;-11.20;99.90;;;;;;5030381;28;20461;-68
2022/12/18 07:47:29;;;;;;;1.10;0.40;;;-11.20;99.90;;;;;;5030572;28;20500;-67
2022/12/18 07:49:55;;;;;;;1.10;0.50;;;-11.20;99.90;;;;;;5030731;28;20479;-67
2022/12/18 07:52:21;;;;;;;1.77;0.50;;;-11.30;99.90;;;;;;5030502;28;20555;-67
2022/12/18 07:54:49;;;;;;;1.10;0.63;;;-11.30;99.90;;;;;;5021312;28;20420;-67
2022/12/18 07:57:15;;;;;;;1.10;0.60;;;-11.30;99.90;;;;;;5031071;28;20817;-67
2022/12/18 07:59:41;;;;;;;1.93;1.60;;;-11.20;99.90;;;;;;5030618;28;20447;-67
2022/12/18 08:02:06;;;;;;;3.20;0.77;;;-11.20;99.90;;;;;;5025588;28;20774;-67
2022/12/18 08:04:35;;;;;;;6.53;2.27;;;-11.10;99.90;;;;;;5029645;28;20175;-63
2022/12/18 08:07:00;;;;;;;1.40;0.60;;;-11.20;99.90;;;;;;5030399;28;20190;-67
2022/12/18 08:09:26;;;;;;;1.00;0.40;;;-11.00;99.90;;;;;;5030462;28;20441;-65
2022/12/18 08:11:51;;;;;;;2.27;1.13;;;-10.90;99.90;;;;;;5030239;28;20214;-65
2022/12/18 08:14:17;;;;;;;1.00;0.43;;;-10.80;99.90;;;;;;5029871;28;20209;-65
2022/12/18 08:16:43;;;;;;;1.00;0.40;;;-10.70;99.90;;;;;;5030602;28;20674;-66
2022/12/18 08:19:08;;;;;;;2.10;0.60;;;-10.60;99.90;;;;;;5030381;28;20179;-66
2022/12/18 08:21:34;;;;;;;2.53;2.10;;;-10.60;99.90;;;;;;5030021;28;20210;-66
2022/12/18 08:24:01;;;;;;;1.20;0.60;;;-10.50;99.90;;;;;;5030408;28;20191;-66
2022/12/18 08:26:29;;;;;;;1.00;0.30;;;-10.40;99.90;;;;;;5030486;28;20589;-66
2022/12/18 08:28:57;;;;;;;5.03;3.30;;;-10.30;99.90;;;;;;5030008;28;20755;-66
2022/12/18 08:31:23;;;;;;;2.90;1.37;;;-10.30;99.90;;;;;;5030345;28;20499;-66
2022/12/18 08:33:52;;;;;;;1.23;0.50;;;-10.20;99.90;;;;;;5029239;28;20964;-66
2022/12/18 08:36:18;;;;;;;2.80;0.40;;;-10.00;99.90;;;;;;5030526;28;20504;-66
2022/12/18 08:38:43;;;;;;;1.17;0.80;;;-9.90;99.90;;;;;;5030361;28;20518;-66
2022/12/18 08:41:11;;;;;;;1.00;0.40;;;-9.80;99.90;;;;;;5033904;28;20594;-66
2022/12/18 08:46:23;;;;;;;7.23;6.53;;;-9.40;99.90;;;;;;5034380;28;20446;-66
2022/12/18 08:48:51;;;;;;;1.00;0.40;;;-9.20;99.90;;;;;;5033755;28;20453;-66
2022/12/18 08:51:17;;;;;;;1.10;0.43;;;-9.00;99.90;;;;;;5033910;28;20427;-66
2022/12/18 08:53:44;;;;;;;1.20;0.50;;;-8.70;99.90;;;;;;5033381;28;20528;-66
2022/12/18 08:56:10;;;;;;;1.10;0.50;;;-8.60;99.90;;;;;;5033614;28;20437;-66
2022/12/18 08:58:35;;;;;;;1.20;0.50;;;-8.40;99.90;;;;;;5033526;28;20859;-66
2022/12/18 09:01:03;;;;;;;1.53;0.60;;;-8.20;99.90;;;;;;5033341;28;20445;-66
2022/12/18 09:03:29;;;;;;;1.73;0.73;;;-8.00;99.90;;;;;;5032812;28;20625;-66
2022/12/18 09:05:54;;;;;;;1.33;0.93;;;-7.90;99.90;;;;;;5033367;28;20432;-71
2022/12/18 09:08:20;;;;;;;5.13;2.00;;;-7.70;99.90;;;;;;5033519;28;20218;-62
2022/12/18 09:10:48;;;;;;;1.57;1.17;;;-7.60;99.90;;;;;;5033252;28;20186;-66
2022/12/18 09:13:15;;;;;;;1.00;0.50;;;-7.60;99.90;;;;;;5033034;28;20179;-67
2022/12/18 09:15:45;;;;;;;1.10;0.57;;;-7.50;99.90;;;;;;5033158;28;20897;-71
2022/12/18 09:18:12;;;;;;;1.00;0.40;;;-7.50;99.90;;;;;;5032763;28;20758;-66
2022/12/18 09:20:38;;;;;;;1.10;0.50;;;-7.40;99.90;;;;;;5033406;28;21042;-66
2022/12/18 09:23:05;;;;;;;1.53;0.90;;;-7.30;99.90;;;;;;5032804;28;20503;-66
2022/12/18 09:25:35;;;;;;;1.53;0.87;;;-7.20;99.90;;;;;;5033188;28;20417;-66
2022/12/18 09:28:02;;;;;;;1.20;0.80;;;-7.00;99.90;;;;;;5033273;28;20461;-66
2022/12/18 09:30:27;;;;;;;1.10;0.40;;;-6.90;99.90;;;;;;5032930;28;20428;-66
2022/12/18 09:32:53;;;;;;;1.10;0.50;;;-6.80;99.90;;;;;;5032430;28;20421;-67
2022/12/18 09:35:19;;;;;;;1.73;0.87;;;-6.60;99.90;;;;;;5031920;28;20774;-67
2022/12/18 09:37:44;;;;;;;1.10;0.60;;;-6.50;99.90;;;;;;5032739;28;20572;-67
2022/12/18 09:40:16;;;;;;;1.00;0.40;;;-6.30;99.90;;;;;;5031480;28;20198;-67
2022/12/18 09:42:48;;;;;;;1.00;0.40;;;-6.20;99.90;;;;;;5032566;28;20194;-68
2022/12/18 09:45:16;;;;;;;1.30;0.50;;;-6.00;99.90;;;;;;5032414;28;20413;-67
2022/12/18 09:47:45;;;;;;;1.10;0.60;;;-5.90;99.90;;;;;;5032633;28;20918;-67
2022/12/18 09:50:19;;;;;;;1.00;0.40;;;-5.70;99.90;;;;;;5032582;28;20421;-67
2022/12/18 09:52:49;;;;;;;7.47;2.67;;;-5.50;99.90;;;;;;5031674;28;20423;-67
2022/12/18 09:55:41;;;;;;;27.20;2.63;;;-5.30;99.90;;;;;;5032678;28;20417;-67
2022/12/18 09:58:28;;;;;;;1.40;0.50;;;-5.20;99.90;;;;;;5032849;28;20445;-66
2022/12/18 10:00:54;;;;;;;6.93;3.20;;;-5.10;99.90;;;;;;5019493;28;20972;-66
2022/12/18 10:03:21;;;;;;;1.60;0.60;;;-4.80;99.90;;;;;;5024524;28;20523;-65
2022/12/18 10:06:13;;;;;;;1.97;1.33;;;-4.70;99.90;;;;;;5031180;28;20425;-65
2022/12/18 10:09:29;;;;;;;1.10;0.50;;;-4.50;99.90;;;;;;5032046;28;20965;-66
2022/12/18 10:12:23;;;;;;;1.10;0.50;;;-4.20;99.90;;;;;;4977171;28;20928;-66
2022/12/18 10:15:17;;;;;;;1.10;0.50;;;-4.00;99.90;;;;;;5031937;28;20428;-66
2022/12/18 10:18:10;;;;;;;1.57;1.10;;;-3.90;99.90;;;;;;5032654;28;20509;-66
2022/12/18 10:20:46;;;;;;;1.97;0.80;;;-3.80;99.90;;;;;;5021372;28;20409;-67
2022/12/18 10:23:37;;;;;;;3.50;1.23;;;-3.70;99.90;;;;;;5031974;28;20913;-66
2022/12/18 10:26:09;;;;;;;24.10;11.80;;;-3.40;99.90;;;;;;5025150;28;20432;-66
2022/12/18 10:28:39;;;;;;;1.37;0.50;;;-3.30;99.90;;;;;;5032221;28;20465;-66
2022/12/18 10:31:16;;;;;;;2.07;1.47;;;-3.00;99.90;;;;;;5031509;28;20436;-66
2022/12/18 10:33:43;;;;;;;26.63;10.67;;;-2.90;99.90;;;;;;5031622;28;20424;-66
2022/12/18 10:36:09;;;;;;;1.40;0.77;;;-2.60;99.90;;;;;;5031966;28;20422;-66
2022/12/18 10:38:35;;;;;;;29.07;11.33;;;-2.60;99.90;;;;;;5031934;28;20775;-66
2022/12/18 10:41:04;;;;;;;3.23;0.77;;;-2.50;99.90;;;;;;5031012;28;20500;-66
2022/12/18 10:43:31;;;;;;;1.40;0.73;;;-2.50;99.90;;;;;;5026859;28;20555;-66
2022/12/18 10:46:08;;;;;;;25.37;11.20;;;-2.30;99.90;;;;;;5028456;28;20440;-66
2022/12/18 10:48:38;;;;;;;1.83;0.93;;;-2.30;99.90;;;;;;5028515;28;20563;-66
2022/12/18 10:51:06;;;;;;;1.77;0.77;;;-2.20;99.90;;;;;;5027835;28;20564;-66
2022/12/18 10:53:34;;;;;;;21.90;8.10;;;-2.10;99.90;;;;;;5031225;28;20432;-66
2022/12/18 10:56:00;;;;;;;3.00;0.70;;;-2.00;99.90;;;;;;5026846;28;20539;-69
2022/12/18 10:58:32;;;;;;;18.63;9.37;;;-1.90;99.90;;;;;;5031012;28;20421;-65
2022/12/18 11:01:04;;;;;;;30.07;10.23;;;-1.90;99.90;;;;;;5031049;28;20566;-66
2022/12/18 11:03:49;;;;;;;1.70;0.87;;;-2.00;99.90;;;;;;5030223;28;20526;-65
2022/12/18 11:06:24;;;;;;;1.30;0.70;;;-1.90;99.90;;;;;;5031360;28;20440;-65
2022/12/18 11:09:06;;;;;;;20.43;10.13;;;-2.00;99.90;;;;;;5031566;28;20464;-65
2022/12/18 11:11:33;;;;;;;1.93;0.87;;;-1.90;99.90;;;;;;5025781;28;20424;-66
2022/12/18 11:14:12;;;;;;;25.00;10.87;;;-1.90;99.90;;;;;;5030326;28;20474;-66
2022/12/18 11:16:45;;;;;;;1.60;0.70;;;-1.90;99.90;;;;;;5031146;28;20413;-65
2022/12/18 11:19:26;;;;;;;22.37;8.30;;;-1.80;99.90;;;;;;5031106;28;20767;-66
2022/12/18 11:21:51;;;;;;;27.80;9.53;;;-1.50;99.90;;;;;;5029325;28;20420;-66
2022/12/18 11:24:28;;;;;;;1.70;0.90;;;-1.30;99.90;;;;;;5031089;28;20429;-66
2022/12/18 11:26:57;;;;;;;17.60;9.27;;;-1.30;99.90;;;;;;5031063;28;20796;-66
2022/12/18 11:29:34;;;;;;;1.30;0.67;;;-1.50;99.90;;;;;;5030288;28;20473;-66
2022/12/18 11:32:28;;;;;;;33.67;10.10;;;-1.60;99.90;;;;;;5030619;28;20475;-66
2022/12/18 11:35:11;;;;;;;23.80;9.07;;;-1.60;99.90;;;;;;5030719;28;20419;-66
2022/12/18 11:37:40;;;;;;;1.30;0.60;;;-1.80;99.90;;;;;;5030867;28;20416;-66
2022/12/18 11:40:17;;;;;;;27.23;10.17;;;-1.90;99.90;;;;;;5029101;28;20555;-66
2022/12/18 11:43:01;;;;;;;2.50;0.80;;;-1.80;99.90;;;;;;5030261;28;20424;-66
2022/12/18 11:45:31;;;;;;;2.97;1.60;;;-1.80;99.90;;;;;;5030096;28;20475;-66
2022/12/18 11:48:14;;;;;;;24.10;10.33;;;-1.70;99.90;;;;;;5028671;28;20535;-66
2022/12/18 11:50:54;;;;;;;22.20;10.23;;;-1.70;99.90;;;;;;5024918;28;20467;-66
2022/12/18 11:53:20;;;;;;;1.83;0.80;;;-1.50;99.90;;;;;;5030272;28;20506;-66
2022/12/18 11:56:07;;;;;;;25.20;10.23;;;-1.30;99.90;;;;;;5030507;28;20480;-66
2022/12/18 11:58:49;;;;;;;20.00;10.50;;;-1.50;99.90;;;;;;5025420;28;20440;-66
2022/12/18 12:01:40;;;;;;;21.17;9.67;;;-1.50;99.90;;;;;;5030673;28;20867;-66
2022/12/18 12:04:27;;;;;;;1.10;0.50;;;-1.60;99.90;;;;;;5018244;28;20470;-66
2022/12/18 12:07:07;;;;;;;18.40;9.20;;;-1.60;99.90;;;;;;5025204;28;20417;-66
2022/12/18 12:10:03;;;;;;;21.23;9.60;;;-1.80;99.90;;;;;;5026128;28;20467;-66
2022/12/18 12:12:53;;;;;;;1.77;0.70;;;-1.70;99.90;;;;;;5022492;28;20409;-66
2022/12/18 12:15:35;;;;;;;22.07;10.53;;;-1.80;99.90;;;;;;5032179;28;20489;-66
2022/12/18 12:18:19;;;;;;;29.17;10.17;;;-1.80;99.90;;;;;;5034530;28;20420;-66
2022/12/18 12:21:00;;;;;;;1.30;0.60;;;-1.80;99.90;;;;;;5034190;28;20429;-66
2022/12/18 12:23:47;;;;;;;1.50;0.70;;;-2.00;99.90;;;;;;5034137;28;20847;-68
2022/12/18 12:26:32;;;;;;;3.30;0.90;;;-2.10;99.90;;;;;;5034356;28;20500;-66
2022/12/18 12:29:10;;;;;;;3.20;0.80;;;-2.20;99.90;;;;;;5032730;28;20519;-66
2022/12/18 12:31:58;;;;;;;20.40;8.40;;;-2.20;99.90;;;;;;5033454;28;20716;-66
2022/12/18 12:34:29;;;;;;;23.33;9.20;;;-2.30;99.90;;;;;;5033984;28;20529;-66
2022/12/18 12:37:19;;;;;;;29.07;9.87;;;-2.30;99.90;;;;;;5034161;28;20416;-66
2022/12/18 12:39:46;;;;;;;38.43;12.43;;;-2.30;99.90;;;;;;5021123;28;20419;-66
2022/12/18 12:45:52;;;;;;;26.90;10.37;;;-2.30;99.90;;;;;;5033507;28;20534;-67
2022/12/18 12:48:44;;;;;;;1.93;0.93;;;-2.30;99.90;;;;;;5034262;28;20460;-66
2022/12/18 12:51:28;;;;;;;2.87;1.80;;;-2.30;99.90;;;;;;5021401;28;20405;-66
2022/12/18 12:53:56;;;;;;;24.70;10.67;;;-2.30;99.90;;;;;;5033892;28;20567;-66
2022/12/18 12:56:24;;;;;;;1.77;0.80;;;-2.30;99.90;;;;;;5033711;28;20548;-66
2022/12/18 12:58:55;;;;;;;26.87;12.00;;;-2.30;99.90;;;;;;5033816;28;20936;-66
2022/12/18 13:01:48;;;;;;;1.40;0.70;;;-2.40;99.90;;;;;;5033555;28;20500;-66
2022/12/18 13:04:36;;;;;;;29.93;11.97;;;-2.40;99.90;;;;;;5033360;28;20417;-66
2022/12/18 13:07:17;;;;;;;29.33;10.90;;;-2.40;99.90;;;;;;5033642;28;20795;-66
2022/12/18 13:10:14;;;;;;;27.33;11.77;;;-2.40;99.90;;;;;;5033306;28;20421;-63